sensor_id;sensor_type;location;lat;lon;timestamp;pressure;altitude;pressure_sealevel;temperature
12854;BMP180;6495;51.808;7.478;2022-09-03T00:02:30;100853.00;;;19.80
12854;BMP180;6495;51.808;7.478;2022-09-03T00:05:07;100847.00;;;19.80
12854;BMP180;6495;51.808;7.478;2022-09-03T00:07:48;100856.00;;;19.80
12854;BMP180;6495;51.808;7.478;2022-09-03T00:10:27;100856.00;;;19.70
12854;BMP180;6495;51.808;7.478;2022-09-03T00:13:00;100852.00;;;19.70
12854;BMP180;6495;51.808;7.478;2022-09-03T00:15:32;100854.00;;;19.70
12854;BMP180;6495;51.808;7.478;2022-09-03T00:18:09;100856.00;;;19.70
12854;BMP180;6495;51.808;7.478;2022-09-03T00:20:42;100864.00;;;19.70
12854;BMP180;6495;51.808;7.478;2022-09-03T00:23:18;100858.00;;;19.70
12854;BMP180;6495;51.808;7.478;2022-09-03T00:25:54;100846.00;;;19.70
12854;BMP180;6495;51.808;7.478;2022-09-03T00:28:29;100852.00;;;19.70
12854;BMP180;6495;51.808;7.478;2022-09-03T00:31:10;100853.00;;;19.60
12854;BMP180;6495;51.808;7.478;2022-09-03T00:33:46;100848.00;;;19.60
12854;BMP180;6495;51.808;7.478;2022-09-03T00:36:21;100850.00;;;19.50
12854;BMP180;6495;51.808;7.478;2022-09-03T00:38:51;100850.00;;;19.50
12854;BMP180;6495;51.808;7.478;2022-09-03T00:41:30;100855.00;;;19.50
12854;BMP180;6495;51.808;7.478;2022-09-03T00:44:24;100851.00;;;19.40
12854;BMP180;6495;51.808;7.478;2022-09-03T00:47:04;100856.00;;;19.40
12854;BMP180;6495;51.808;7.478;2022-09-03T00:49:54;100855.00;;;19.40
12854;BMP180;6495;51.808;7.478;2022-09-03T00:52:39;100850.00;;;19.30
12854;BMP180;6495;51.808;7.478;2022-09-03T00:55:26;100861.00;;;19.30
12854;BMP180;6495;51.808;7.478;2022-09-03T00:58:24;100855.00;;;19.30
12854;BMP180;6495;51.808;7.478;2022-09-03T01:00:56;100849.00;;;19.20
12854;BMP180;6495;51.808;7.478;2022-09-03T01:03:35;100849.00;;;19.20
12854;BMP180;6495;51.808;7.478;2022-09-03T01:06:16;100849.00;;;19.20
12854;BMP180;6495;51.808;7.478;2022-09-03T01:09:21;100849.00;;;19.20
12854;BMP180;6495;51.808;7.478;2022-09-03T01:12:00;100853.00;;;19.10
12854;BMP180;6495;51.808;7.478;2022-09-03T01:14:55;100847.00;;;19.10
12854;BMP180;6495;51.808;7.478;2022-09-03T01:17:38;100850.00;;;19.00
12854;BMP180;6495;51.808;7.478;2022-09-03T01:20:45;100847.00;;;19.00
12854;BMP180;6495;51.808;7.478;2022-09-03T01:23:48;100854.00;;;19.00
12854;BMP180;6495;51.808;7.478;2022-09-03T01:26:39;100848.00;;;18.90
12854;BMP180;6495;51.808;7.478;2022-09-03T01:29:19;100858.00;;;18.90
12854;BMP180;6495;51.808;7.478;2022-09-03T01:32:03;100854.00;;;18.90
12854;BMP180;6495;51.808;7.478;2022-09-03T01:34:51;100858.00;;;18.90
12854;BMP180;6495;51.808;7.478;2022-09-03T01:37:31;100852.00;;;18.80
12854;BMP180;6495;51.808;7.478;2022-09-03T01:40:16;100853.00;;;18.80
12854;BMP180;6495;51.808;7.478;2022-09-03T01:43:00;100848.00;;;18.80
12854;BMP180;6495;51.808;7.478;2022-09-03T01:45:46;100848.00;;;18.80
12854;BMP180;6495;51.808;7.478;2022-09-03T01:48:34;100844.00;;;18.70
12854;BMP180;6495;51.808;7.478;2022-09-03T01:51:17;100839.00;;;18.70
12854;BMP180;6495;51.808;7.478;2022-09-03T01:54:30;100837.00;;;18.70
12854;BMP180;6495;51.808;7.478;2022-09-03T01:57:33;100846.00;;;18.60
12854;BMP180;6495;51.808;7.478;2022-09-03T02:00:08;100844.00;;;18.50
12854;BMP180;6495;51.808;7.478;2022-09-03T02:02:42;100847.00;;;18.50
12854;BMP180;6495;51.808;7.478;2022-09-03T02:05:18;100838.00;;;18.40
12854;BMP180;6495;51.808;7.478;2022-09-03T02:07:55;100850.00;;;18.40
12854;BMP180;6495;51.808;7.478;2022-09-03T02:10:28;100832.00;;;18.30
12854;BMP180;6495;51.808;7.478;2022-09-03T02:13:04;100837.00;;;18.30
12854;BMP180;6495;51.808;7.478;2022-09-03T02:15:36;100844.00;;;18.20
12854;BMP180;6495;51.808;7.478;2022-09-03T02:18:14;100838.00;;;18.20
12854;BMP180;6495;51.808;7.478;2022-09-03T02:20:44;100844.00;;;18.10
12854;BMP180;6495;51.808;7.478;2022-09-03T02:23:14;100845.00;;;18.00
12854;BMP180;6495;51.808;7.478;2022-09-03T02:25:47;100844.00;;;18.00
12854;BMP180;6495;51.808;7.478;2022-09-03T02:28:17;100839.00;;;18.00
12854;BMP180;6495;51.808;7.478;2022-09-03T02:30:45;100837.00;;;17.90
12854;BMP180;6495;51.808;7.478;2022-09-03T02:33:15;100835.00;;;17.80
12854;BMP180;6495;51.808;7.478;2022-09-03T02:35:44;100830.00;;;17.80
12854;BMP180;6495;51.808;7.478;2022-09-03T02:38:15;100838.00;;;17.80
12854;BMP180;6495;51.808;7.478;2022-09-03T02:40:46;100834.00;;;17.80
12854;BMP180;6495;51.808;7.478;2022-09-03T02:43:22;100835.00;;;17.70
12854;BMP180;6495;51.808;7.478;2022-09-03T02:45:57;100831.00;;;17.70
12854;BMP180;6495;51.808;7.478;2022-09-03T02:48:29;100832.00;;;17.70
12854;BMP180;6495;51.808;7.478;2022-09-03T02:50:57;100830.00;;;17.60
12854;BMP180;6495;51.808;7.478;2022-09-03T02:53:25;100827.00;;;17.60
12854;BMP180;6495;51.808;7.478;2022-09-03T02:55:58;100829.00;;;17.60
12854;BMP180;6495;51.808;7.478;2022-09-03T02:58:28;100828.00;;;17.50
12854;BMP180;6495;51.808;7.478;2022-09-03T03:00:57;100822.00;;;17.50
12854;BMP180;6495;51.808;7.478;2022-09-03T03:03:26;100826.00;;;17.50
12854;BMP180;6495;51.808;7.478;2022-09-03T03:05:59;100823.00;;;17.40
12854;BMP180;6495;51.808;7.478;2022-09-03T03:08:28;100826.00;;;17.40
12854;BMP180;6495;51.808;7.478;2022-09-03T03:10:58;100814.00;;;17.30
12854;BMP180;6495;51.808;7.478;2022-09-03T03:13:28;100811.00;;;17.30
12854;BMP180;6495;51.808;7.478;2022-09-03T03:15:58;100808.00;;;17.30
12854;BMP180;6495;51.808;7.478;2022-09-03T03:18:27;100817.00;;;17.20
12854;BMP180;6495;51.808;7.478;2022-09-03T03:20:57;100818.00;;;17.20
12854;BMP180;6495;51.808;7.478;2022-09-03T03:23:31;100820.00;;;17.30
12854;BMP180;6495;51.808;7.478;2022-09-03T03:26:00;100812.00;;;17.20
12854;BMP180;6495;51.808;7.478;2022-09-03T03:28:29;100811.00;;;17.20
12854;BMP180;6495;51.808;7.478;2022-09-03T03:31:05;100806.00;;;17.10
12854;BMP180;6495;51.808;7.478;2022-09-03T03:33:34;100814.00;;;17.10
12854;BMP180;6495;51.808;7.478;2022-09-03T03:36:09;100815.00;;;17.00
12854;BMP180;6495;51.808;7.478;2022-09-03T03:38:38;100811.00;;;17.00
12854;BMP180;6495;51.808;7.478;2022-09-03T03:41:08;100811.00;;;16.90
12854;BMP180;6495;51.808;7.478;2022-09-03T03:43:36;100812.00;;;17.00
12854;BMP180;6495;51.808;7.478;2022-09-03T03:46:04;100807.00;;;16.90
12854;BMP180;6495;51.808;7.478;2022-09-03T03:48:33;100811.00;;;16.90
12854;BMP180;6495;51.808;7.478;2022-09-03T03:51:03;100810.00;;;16.80
12854;BMP180;6495;51.808;7.478;2022-09-03T03:53:36;100812.00;;;16.80
12854;BMP180;6495;51.808;7.478;2022-09-03T03:56:08;100815.00;;;16.80
12854;BMP180;6495;51.808;7.478;2022-09-03T03:58:36;100809.00;;;16.80
12854;BMP180;6495;51.808;7.478;2022-09-03T04:01:13;100803.00;;;16.70
12854;BMP180;6495;51.808;7.478;2022-09-03T04:03:42;100805.00;;;16.60
12854;BMP180;6495;51.808;7.478;2022-09-03T04:06:13;100801.00;;;16.60
12854;BMP180;6495;51.808;7.478;2022-09-03T04:08:45;100792.00;;;16.50
12854;BMP180;6495;51.808;7.478;2022-09-03T04:11:18;100798.00;;;16.50
12854;BMP180;6495;51.808;7.478;2022-09-03T04:13:47;100798.00;;;16.40
12854;BMP180;6495;51.808;7.478;2022-09-03T04:16:18;100793.00;;;16.40
12854;BMP180;6495;51.808;7.478;2022-09-03T04:18:47;100801.00;;;16.50
12854;BMP180;6495;51.808;7.478;2022-09-03T04:21:18;100804.00;;;16.50
12854;BMP180;6495;51.808;7.478;2022-09-03T04:23:49;100799.00;;;16.50
12854;BMP180;6495;51.808;7.478;2022-09-03T04:26:20;100796.00;;;16.50
12854;BMP180;6495;51.808;7.478;2022-09-03T04:28:49;100794.00;;;16.50
12854;BMP180;6495;51.808;7.478;2022-09-03T04:31:19;100786.00;;;16.50
12854;BMP180;6495;51.808;7.478;2022-09-03T04:33:47;100786.00;;;16.50
12854;BMP180;6495;51.808;7.478;2022-09-03T04:36:19;100783.00;;;16.50
12854;BMP180;6495;51.808;7.478;2022-09-03T04:38:51;100783.00;;;16.50
12854;BMP180;6495;51.808;7.478;2022-09-03T04:41:23;100784.00;;;16.50
12854;BMP180;6495;51.808;7.478;2022-09-03T04:43:53;100786.00;;;16.50
12854;BMP180;6495;51.808;7.478;2022-09-03T04:46:24;100781.00;;;16.40
12854;BMP180;6495;51.808;7.478;2022-09-03T04:48:54;100790.00;;;16.40
12854;BMP180;6495;51.808;7.478;2022-09-03T04:51:26;100786.00;;;16.30
12854;BMP180;6495;51.808;7.478;2022-09-03T04:53:59;100792.00;;;16.40
12854;BMP180;6495;51.808;7.478;2022-09-03T04:56:29;100783.00;;;16.40
12854;BMP180;6495;51.808;7.478;2022-09-03T04:58:59;100787.00;;;16.40
12854;BMP180;6495;51.808;7.478;2022-09-03T05:01:30;100775.00;;;16.40
12854;BMP180;6495;51.808;7.478;2022-09-03T05:03:59;100788.00;;;16.40
12854;BMP180;6495;51.808;7.478;2022-09-03T05:06:30;100785.00;;;16.50
12854;BMP180;6495;51.808;7.478;2022-09-03T05:09:00;100787.00;;;16.50
12854;BMP180;6495;51.808;7.478;2022-09-03T05:11:29;100785.00;;;16.40
12854;BMP180;6495;51.808;7.478;2022-09-03T05:13:59;100785.00;;;16.40
12854;BMP180;6495;51.808;7.478;2022-09-03T05:16:28;100794.00;;;16.40
12854;BMP180;6495;51.808;7.478;2022-09-03T05:18:59;100784.00;;;16.40
12854;BMP180;6495;51.808;7.478;2022-09-03T05:21:28;100786.00;;;16.30
12854;BMP180;6495;51.808;7.478;2022-09-03T05:24:00;100781.00;;;16.40
12854;BMP180;6495;51.808;7.478;2022-09-03T05:26:32;100789.00;;;16.30
12854;BMP180;6495;51.808;7.478;2022-09-03T05:29:02;100789.00;;;16.30
12854;BMP180;6495;51.808;7.478;2022-09-03T05:31:36;100791.00;;;16.40
12854;BMP180;6495;51.808;7.478;2022-09-03T05:34:05;100791.00;;;16.40
12854;BMP180;6495;51.808;7.478;2022-09-03T05:36:36;100787.00;;;16.40
12854;BMP180;6495;51.808;7.478;2022-09-03T05:39:06;100780.00;;;16.50
12854;BMP180;6495;51.808;7.478;2022-09-03T05:41:34;100785.00;;;16.50
12854;BMP180;6495;51.808;7.478;2022-09-03T05:44:02;100787.00;;;16.50
12854;BMP180;6495;51.808;7.478;2022-09-03T05:46:32;100786.00;;;16.50
12854;BMP180;6495;51.808;7.478;2022-09-03T05:49:05;100784.00;;;16.40
12854;BMP180;6495;51.808;7.478;2022-09-03T05:51:35;100786.00;;;16.40
12854;BMP180;6495;51.808;7.478;2022-09-03T05:54:03;100783.00;;;16.40
12854;BMP180;6495;51.808;7.478;2022-09-03T05:56:33;100782.00;;;16.40
12854;BMP180;6495;51.808;7.478;2022-09-03T05:59:04;100776.00;;;16.50
12854;BMP180;6495;51.808;7.478;2022-09-03T06:01:35;100781.00;;;16.50
12854;BMP180;6495;51.808;7.478;2022-09-03T06:04:19;100795.00;;;16.50
12854;BMP180;6495;51.808;7.478;2022-09-03T06:06:48;100789.00;;;16.50
12854;BMP180;6495;51.808;7.478;2022-09-03T06:09:18;100789.00;;;16.50
12854;BMP180;6495;51.808;7.478;2022-09-03T06:11:51;100793.00;;;16.60
12854;BMP180;6495;51.808;7.478;2022-09-03T06:14:19;100790.00;;;16.60
12854;BMP180;6495;51.808;7.478;2022-09-03T06:16:49;100782.00;;;16.60
12854;BMP180;6495;51.808;7.478;2022-09-03T06:19:22;100788.00;;;16.70
12854;BMP180;6495;51.808;7.478;2022-09-03T06:21:51;100783.00;;;16.80
12854;BMP180;6495;51.808;7.478;2022-09-03T06:24:20;100793.00;;;16.90
12854;BMP180;6495;51.808;7.478;2022-09-03T06:26:55;100792.00;;;16.90
12854;BMP180;6495;51.808;7.478;2022-09-03T06:29:23;100791.00;;;17.00
12854;BMP180;6495;51.808;7.478;2022-09-03T06:31:51;100787.00;;;17.00
12854;BMP180;6495;51.808;7.478;2022-09-03T06:34:19;100797.00;;;17.00
12854;BMP180;6495;51.808;7.478;2022-09-03T06:36:48;100797.00;;;17.10
12854;BMP180;6495;51.808;7.478;2022-09-03T06:39:20;100795.00;;;17.20
12854;BMP180;6495;51.808;7.478;2022-09-03T06:41:48;100792.00;;;17.20
12854;BMP180;6495;51.808;7.478;2022-09-03T06:44:18;100797.00;;;17.30
12854;BMP180;6495;51.808;7.478;2022-09-03T06:46:46;100796.00;;;17.40
12854;BMP180;6495;51.808;7.478;2022-09-03T06:49:14;100798.00;;;17.40
12854;BMP180;6495;51.808;7.478;2022-09-03T06:51:43;100797.00;;;17.50
12854;BMP180;6495;51.808;7.478;2022-09-03T06:54:11;100806.00;;;17.60
12854;BMP180;6495;51.808;7.478;2022-09-03T06:56:41;100806.00;;;17.70
12854;BMP180;6495;51.808;7.478;2022-09-03T06:59:11;100806.00;;;17.80
12854;BMP180;6495;51.808;7.478;2022-09-03T07:01:42;100810.00;;;17.90
12854;BMP180;6495;51.808;7.478;2022-09-03T07:04:14;100817.00;;;17.90
12854;BMP180;6495;51.808;7.478;2022-09-03T07:06:46;100815.00;;;18.00
12854;BMP180;6495;51.808;7.478;2022-09-03T07:09:14;100813.00;;;18.10
12854;BMP180;6495;51.808;7.478;2022-09-03T07:11:45;100815.00;;;18.20
12854;BMP180;6495;51.808;7.478;2022-09-03T07:14:16;100812.00;;;18.30
12854;BMP180;6495;51.808;7.478;2022-09-03T07:16:47;100803.00;;;18.40
12854;BMP180;6495;51.808;7.478;2022-09-03T07:19:18;100804.00;;;18.40
12854;BMP180;6495;51.808;7.478;2022-09-03T07:21:46;100806.00;;;18.50
12854;BMP180;6495;51.808;7.478;2022-09-03T07:24:18;100819.00;;;18.60
12854;BMP180;6495;51.808;7.478;2022-09-03T07:26:48;100807.00;;;18.70
12854;BMP180;6495;51.808;7.478;2022-09-03T07:29:17;100813.00;;;18.90
12854;BMP180;6495;51.808;7.478;2022-09-03T07:31:50;100809.00;;;19.00
12854;BMP180;6495;51.808;7.478;2022-09-03T07:34:20;100818.00;;;19.20
12854;BMP180;6495;51.808;7.478;2022-09-03T07:36:52;100818.00;;;19.40
12854;BMP180;6495;51.808;7.478;2022-09-03T07:39:20;100805.00;;;19.40
12854;BMP180;6495;51.808;7.478;2022-09-03T07:41:49;100817.00;;;19.60
12854;BMP180;6495;51.808;7.478;2022-09-03T07:44:17;100807.00;;;19.70
12854;BMP180;6495;51.808;7.478;2022-09-03T07:46:47;100808.00;;;19.80
12854;BMP180;6495;51.808;7.478;2022-09-03T07:49:18;100812.00;;;19.90
12854;BMP180;6495;51.808;7.478;2022-09-03T07:51:47;100804.00;;;20.00
12854;BMP180;6495;51.808;7.478;2022-09-03T07:54:18;100805.00;;;20.10
12854;BMP180;6495;51.808;7.478;2022-09-03T07:56:48;100805.00;;;20.20
12854;BMP180;6495;51.808;7.478;2022-09-03T07:59:16;100811.00;;;20.40
12854;BMP180;6495;51.808;7.478;2022-09-03T08:01:44;100817.00;;;20.50
12854;BMP180;6495;51.808;7.478;2022-09-03T08:04:14;100812.00;;;20.60
12854;BMP180;6495;51.808;7.478;2022-09-03T08:06:42;100812.00;;;20.80
12854;BMP180;6495;51.808;7.478;2022-09-03T08:09:12;100803.00;;;21.00
12854;BMP180;6495;51.808;7.478;2022-09-03T08:11:42;100821.00;;;21.20
12854;BMP180;6495;51.808;7.478;2022-09-03T08:14:12;100824.00;;;21.30
12854;BMP180;6495;51.808;7.478;2022-09-03T08:16:43;100829.00;;;21.50
12854;BMP180;6495;51.808;7.478;2022-09-03T08:19:15;100828.00;;;21.60
12854;BMP180;6495;51.808;7.478;2022-09-03T08:21:43;100832.00;;;21.80
12854;BMP180;6495;51.808;7.478;2022-09-03T08:24:14;100827.00;;;21.90
12854;BMP180;6495;51.808;7.478;2022-09-03T08:26:42;100823.00;;;22.00
12854;BMP180;6495;51.808;7.478;2022-09-03T08:29:17;100828.00;;;22.10
12854;BMP180;6495;51.808;7.478;2022-09-03T08:31:45;100829.00;;;22.20
12854;BMP180;6495;51.808;7.478;2022-09-03T08:34:15;100830.00;;;22.30
12854;BMP180;6495;51.808;7.478;2022-09-03T08:36:44;100824.00;;;22.30
12854;BMP180;6495;51.808;7.478;2022-09-03T08:39:13;100837.00;;;22.40
12854;BMP180;6495;51.808;7.478;2022-09-03T08:42:00;100820.00;;;22.50
12854;BMP180;6495;51.808;7.478;2022-09-03T08:44:43;100838.00;;;22.50
12854;BMP180;6495;51.808;7.478;2022-09-03T08:47:20;100823.00;;;22.50
12854;BMP180;6495;51.808;7.478;2022-09-03T08:49:54;100826.00;;;22.60
12854;BMP180;6495;51.808;7.478;2022-09-03T08:52:29;100821.00;;;22.70
12854;BMP180;6495;51.808;7.478;2022-09-03T08:55:15;100829.00;;;22.90
12854;BMP180;6495;51.808;7.478;2022-09-03T08:57:48;100829.00;;;23.00
12854;BMP180;6495;51.808;7.478;2022-09-03T09:00:17;100824.00;;;23.10
12854;BMP180;6495;51.808;7.478;2022-09-03T09:02:57;100831.00;;;23.20
12854;BMP180;6495;51.808;7.478;2022-09-03T09:05:45;100825.00;;;23.30
12854;BMP180;6495;51.808;7.478;2022-09-03T09:08:24;100825.00;;;23.40
12854;BMP180;6495;51.808;7.478;2022-09-03T09:11:06;100827.00;;;23.60
12854;BMP180;6495;51.808;7.478;2022-09-03T09:13:44;100823.00;;;23.70
12854;BMP180;6495;51.808;7.478;2022-09-03T09:16:22;100827.00;;;23.70
12854;BMP180;6495;51.808;7.478;2022-09-03T09:19:09;100832.00;;;23.70
12854;BMP180;6495;51.808;7.478;2022-09-03T09:21:48;100817.00;;;23.80
12854;BMP180;6495;51.808;7.478;2022-09-03T09:24:22;100815.00;;;23.80
12854;BMP180;6495;51.808;7.478;2022-09-03T09:26:58;100813.00;;;24.00
12854;BMP180;6495;51.808;7.478;2022-09-03T09:29:31;100812.00;;;24.10
12854;BMP180;6495;51.808;7.478;2022-09-03T09:32:02;100810.00;;;24.10
12854;BMP180;6495;51.808;7.478;2022-09-03T09:34:34;100807.00;;;24.30
12854;BMP180;6495;51.808;7.478;2022-09-03T09:37:09;100809.00;;;24.40
12854;BMP180;6495;51.808;7.478;2022-09-03T09:39:40;100814.00;;;24.50
12854;BMP180;6495;51.808;7.478;2022-09-03T09:42:10;100811.00;;;24.50
12854;BMP180;6495;51.808;7.478;2022-09-03T09:44:41;100810.00;;;24.60
12854;BMP180;6495;51.808;7.478;2022-09-03T09:47:15;100801.00;;;24.50
12854;BMP180;6495;51.808;7.478;2022-09-03T09:49:53;100800.00;;;24.60
12854;BMP180;6495;51.808;7.478;2022-09-03T09:52:25;100794.00;;;24.70
12854;BMP180;6495;51.808;7.478;2022-09-03T09:55:07;100798.00;;;24.90
12854;BMP180;6495;51.808;7.478;2022-09-03T09:57:35;100797.00;;;25.10
12854;BMP180;6495;51.808;7.478;2022-09-03T10:00:09;100803.00;;;25.20
12854;BMP180;6495;51.808;7.478;2022-09-03T10:02:48;100810.00;;;25.30
12854;BMP180;6495;51.808;7.478;2022-09-03T10:05:23;100807.00;;;25.40
12854;BMP180;6495;51.808;7.478;2022-09-03T10:07:57;100810.00;;;25.50
12854;BMP180;6495;51.808;7.478;2022-09-03T10:10:26;100804.00;;;25.60
12854;BMP180;6495;51.808;7.478;2022-09-03T10:13:04;100803.00;;;25.70
12854;BMP180;6495;51.808;7.478;2022-09-03T10:15:44;100799.00;;;25.80
12854;BMP180;6495;51.808;7.478;2022-09-03T10:18:18;100805.00;;;25.90
12854;BMP180;6495;51.808;7.478;2022-09-03T10:21:01;100799.00;;;25.90
12854;BMP180;6495;51.808;7.478;2022-09-03T10:23:49;100795.00;;;26.10
12854;BMP180;6495;51.808;7.478;2022-09-03T10:26:22;100802.00;;;26.20
12854;BMP180;6495;51.808;7.478;2022-09-03T10:29:00;100798.00;;;26.20
12854;BMP180;6495;51.808;7.478;2022-09-03T10:32:09;100802.00;;;26.20
12854;BMP180;6495;51.808;7.478;2022-09-03T10:34:51;100799.00;;;26.20
12854;BMP180;6495;51.808;7.478;2022-09-03T10:37:35;100797.00;;;26.20
12854;BMP180;6495;51.808;7.478;2022-09-03T10:40:19;100800.00;;;26.30
12854;BMP180;6495;51.808;7.478;2022-09-03T10:43:15;100800.00;;;26.30
12854;BMP180;6495;51.808;7.478;2022-09-03T10:45:59;100790.00;;;26.30
12854;BMP180;6495;51.808;7.478;2022-09-03T10:48:54;100796.00;;;26.30
12854;BMP180;6495;51.808;7.478;2022-09-03T10:51:30;100791.00;;;26.20
12854;BMP180;6495;51.808;7.478;2022-09-03T10:54:31;100794.00;;;26.20
12854;BMP180;6495;51.808;7.478;2022-09-03T10:57:18;100788.00;;;26.30
12854;BMP180;6495;51.808;7.478;2022-09-03T11:00:03;100792.00;;;26.40
12854;BMP180;6495;51.808;7.478;2022-09-03T11:03:21;100793.00;;;26.40
12854;BMP180;6495;51.808;7.478;2022-09-03T11:06:01;100791.00;;;26.30
12854;BMP180;6495;51.808;7.478;2022-09-03T11:08:35;100788.00;;;26.50
12854;BMP180;6495;51.808;7.478;2022-09-03T11:11:12;100788.00;;;26.60
12854;BMP180;6495;51.808;7.478;2022-09-03T11:13:48;100791.00;;;26.60
12854;BMP180;6495;51.808;7.478;2022-09-03T11:16:22;100778.00;;;26.60
12854;BMP180;6495;51.808;7.478;2022-09-03T11:18:56;100786.00;;;26.70
12854;BMP180;6495;51.808;7.478;2022-09-03T11:21:30;100780.00;;;27.00
12854;BMP180;6495;51.808;7.478;2022-09-03T11:24:10;100784.00;;;27.10
12854;BMP180;6495;51.808;7.478;2022-09-03T11:26:42;100783.00;;;27.20
12854;BMP180;6495;51.808;7.478;2022-09-03T11:29:19;100779.00;;;27.30
12854;BMP180;6495;51.808;7.478;2022-09-03T11:31:58;100773.00;;;27.40
12854;BMP180;6495;51.808;7.478;2022-09-03T11:34:32;100780.00;;;27.40
12854;BMP180;6495;51.808;7.478;2022-09-03T11:37:17;100789.00;;;27.50
12854;BMP180;6495;51.808;7.478;2022-09-03T11:39:58;100777.00;;;27.70
12854;BMP180;6495;51.808;7.478;2022-09-03T11:42:35;100788.00;;;27.90
12854;BMP180;6495;51.808;7.478;2022-09-03T11:45:36;100783.00;;;27.90
12854;BMP180;6495;51.808;7.478;2022-09-03T11:48:35;100771.00;;;27.90
12854;BMP180;6495;51.808;7.478;2022-09-03T11:51:20;100765.00;;;28.10
12854;BMP180;6495;51.808;7.478;2022-09-03T11:54:23;100766.00;;;28.20
12854;BMP180;6495;51.808;7.478;2022-09-03T11:57:08;100773.00;;;28.20
12854;BMP180;6495;51.808;7.478;2022-09-03T11:59:41;100764.00;;;28.20
12854;BMP180;6495;51.808;7.478;2022-09-03T12:02:25;100764.00;;;28.20
12854;BMP180;6495;51.808;7.478;2022-09-03T12:05:20;100766.00;;;28.20
12854;BMP180;6495;51.808;7.478;2022-09-03T12:08:40;100757.00;;;28.20
12854;BMP180;6495;51.808;7.478;2022-09-03T12:11:34;100751.00;;;28.40
12854;BMP180;6495;51.808;7.478;2022-09-03T12:14:19;100765.00;;;28.60
12854;BMP180;6495;51.808;7.478;2022-09-03T12:17:08;100763.00;;;28.60
12854;BMP180;6495;51.808;7.478;2022-09-03T12:19:49;100757.00;;;28.40
12854;BMP180;6495;51.808;7.478;2022-09-03T12:22:20;100754.00;;;28.50
12854;BMP180;6495;51.808;7.478;2022-09-03T12:24:50;100745.00;;;28.70
12854;BMP180;6495;51.808;7.478;2022-09-03T12:27:21;100752.00;;;28.80
12854;BMP180;6495;51.808;7.478;2022-09-03T12:29:54;100753.00;;;28.70
12854;BMP180;6495;51.808;7.478;2022-09-03T12:32:25;100745.00;;;28.80
12854;BMP180;6495;51.808;7.478;2022-09-03T12:34:55;100749.00;;;28.80
12854;BMP180;6495;51.808;7.478;2022-09-03T12:37:25;100753.00;;;28.70
12854;BMP180;6495;51.808;7.478;2022-09-03T12:40:19;100744.00;;;28.60
12854;BMP180;6495;51.808;7.478;2022-09-03T12:42:49;100752.00;;;28.70
12854;BMP180;6495;51.808;7.478;2022-09-03T12:45:21;100754.00;;;28.70
12854;BMP180;6495;51.808;7.478;2022-09-03T12:47:50;100748.00;;;28.70
12854;BMP180;6495;51.808;7.478;2022-09-03T12:50:23;100747.00;;;28.70
12854;BMP180;6495;51.808;7.478;2022-09-03T12:52:53;100741.00;;;28.90
12854;BMP180;6495;51.808;7.478;2022-09-03T12:55:31;100744.00;;;29.10
12854;BMP180;6495;51.808;7.478;2022-09-03T12:58:07;100745.00;;;29.10
12854;BMP180;6495;51.808;7.478;2022-09-03T13:00:45;100742.00;;;29.00
12854;BMP180;6495;51.808;7.478;2022-09-03T13:03:22;100743.00;;;29.00
12854;BMP180;6495;51.808;7.478;2022-09-03T13:05:57;100745.00;;;29.00
12854;BMP180;6495;51.808;7.478;2022-09-03T13:08:31;100735.00;;;29.20
12854;BMP180;6495;51.808;7.478;2022-09-03T13:11:03;100744.00;;;29.20
12854;BMP180;6495;51.808;7.478;2022-09-03T13:13:35;100739.00;;;29.10
12854;BMP180;6495;51.808;7.478;2022-09-03T13:19:14;100733.00;;;29.00
12854;BMP180;6495;51.808;7.478;2022-09-03T13:22:00;100733.00;;;28.90
12854;BMP180;6495;51.808;7.478;2022-09-03T13:24:56;100724.00;;;29.10
12854;BMP180;6495;51.808;7.478;2022-09-03T13:27:35;100727.00;;;29.20
12854;BMP180;6495;51.808;7.478;2022-09-03T13:30:09;100732.00;;;29.20
12854;BMP180;6495;51.808;7.478;2022-09-03T13:32:51;100731.00;;;29.40
12854;BMP180;6495;51.808;7.478;2022-09-03T13:35:32;100735.00;;;29.30
12854;BMP180;6495;51.808;7.478;2022-09-03T13:38:17;100741.00;;;29.30
12854;BMP180;6495;51.808;7.478;2022-09-03T13:40:55;100732.00;;;29.40
12854;BMP180;6495;51.808;7.478;2022-09-03T13:43:32;100731.00;;;29.50
12854;BMP180;6495;51.808;7.478;2022-09-03T13:46:06;100732.00;;;29.50
12854;BMP180;6495;51.808;7.478;2022-09-03T13:48:39;100723.00;;;29.50
12854;BMP180;6495;51.808;7.478;2022-09-03T13:51:35;100723.00;;;29.60
12854;BMP180;6495;51.808;7.478;2022-09-03T13:54:13;100720.00;;;29.80
12854;BMP180;6495;51.808;7.478;2022-09-03T13:57:06;100722.00;;;29.80
12854;BMP180;6495;51.808;7.478;2022-09-03T13:59:51;100724.00;;;29.90
12854;BMP180;6495;51.808;7.478;2022-09-03T14:02:30;100723.00;;;29.90
12854;BMP180;6495;51.808;7.478;2022-09-03T14:05:08;100720.00;;;30.00
12854;BMP180;6495;51.808;7.478;2022-09-03T14:07:52;100711.00;;;30.00
12854;BMP180;6495;51.808;7.478;2022-09-03T14:10:43;100722.00;;;30.10
12854;BMP180;6495;51.808;7.478;2022-09-03T14:13:21;100724.00;;;30.20
12854;BMP180;6495;51.808;7.478;2022-09-03T14:16:02;100720.00;;;30.20
12854;BMP180;6495;51.808;7.478;2022-09-03T14:18:44;100715.00;;;30.20
12854;BMP180;6495;51.808;7.478;2022-09-03T14:21:22;100716.00;;;30.20
12854;BMP180;6495;51.808;7.478;2022-09-03T14:24:00;100727.00;;;30.00
12854;BMP180;6495;51.808;7.478;2022-09-03T14:26:34;100719.00;;;29.80
12854;BMP180;6495;51.808;7.478;2022-09-03T14:29:15;100726.00;;;29.70
12854;BMP180;6495;51.808;7.478;2022-09-03T14:32:15;100729.00;;;29.60
12854;BMP180;6495;51.808;7.478;2022-09-03T14:35:05;100731.00;;;29.40
12854;BMP180;6495;51.808;7.478;2022-09-03T14:38:07;100719.00;;;29.30
12854;BMP180;6495;51.808;7.478;2022-09-03T14:40:42;100729.00;;;29.30
12854;BMP180;6495;51.808;7.478;2022-09-03T14:43:47;100729.00;;;29.40
12854;BMP180;6495;51.808;7.478;2022-09-03T14:46:35;100731.00;;;29.30
12854;BMP180;6495;51.808;7.478;2022-09-03T14:52:27;100741.00;;;29.10
12854;BMP180;6495;51.808;7.478;2022-09-03T14:55:24;100744.00;;;29.00
12854;BMP180;6495;51.808;7.478;2022-09-03T14:58:32;100745.00;;;29.10
12854;BMP180;6495;51.808;7.478;2022-09-03T15:01:10;100741.00;;;29.00
12854;BMP180;6495;51.808;7.478;2022-09-03T15:04:22;100744.00;;;29.00
12854;BMP180;6495;51.808;7.478;2022-09-03T15:07:20;100736.00;;;28.90
12854;BMP180;6495;51.808;7.478;2022-09-03T15:10:02;100748.00;;;28.90